createdAt,value
2017-04-03T00:00:30.407Z,9.11
2017-04-03T00:01:10.929Z,9.01
2017-04-03T00:01:51.471Z,9.08
2017-04-03T00:02:31.999Z,9.11
2017-04-03T00:03:12.530Z,9.02
2017-04-03T00:03:53.049Z,9.02
2017-04-03T00:04:33.582Z,9.04
2017-04-03T00:05:14.111Z,9.02
2017-04-03T00:05:54.646Z,8.92
2017-04-03T00:06:35.146Z,8.91
2017-04-03T00:07:15.673Z,8.92
2017-04-03T00:07:56.206Z,8.91
2017-04-03T00:08:36.741Z,8.94
2017-04-03T00:09:17.263Z,8.95
2017-04-03T00:09:57.795Z,8.95
2017-04-03T00:10:38.335Z,8.87
2017-04-03T00:11:18.861Z,8.92
2017-04-03T00:11:59.406Z,8.95
2017-04-03T00:12:39.936Z,8.92
2017-04-03T00:13:20.462Z,8.95
2017-04-03T00:14:00.996Z,8.92
2017-04-03T00:14:41.525Z,8.89
2017-04-03T00:15:22.058Z,8.96
2017-04-03T00:16:02.574Z,8.92
2017-04-03T00:16:43.115Z,8.87
2017-04-03T00:17:23.648Z,8.89
2017-04-03T00:18:04.183Z,8.92
2017-04-03T00:18:44.704Z,8.84
2017-04-03T00:19:25.225Z,8.86
2017-04-03T00:20:05.740Z,8.83
2017-04-03T00:20:46.312Z,8.76
2017-04-03T00:21:26.816Z,8.8
2017-04-03T00:22:07.329Z,8.86
2017-04-03T00:22:47.855Z,8.84
2017-04-03T00:23:28.384Z,8.77
2017-04-03T00:24:08.916Z,8.77
2017-04-03T00:24:49.446Z,8.73
2017-04-03T00:25:29.977Z,8.74
2017-04-03T00:26:10.502Z,8.8
2017-04-03T00:26:51.037Z,8.77
2017-04-03T00:27:31.570Z,8.77
2017-04-03T00:28:12.106Z,8.71
2017-04-03T00:28:52.627Z,8.66
2017-04-03T00:29:33.152Z,8.68
2017-04-03T00:30:13.682Z,8.71
2017-04-03T00:30:54.223Z,8.74
2017-04-03T00:31:34.753Z,8.68
2017-04-03T00:32:15.279Z,8.7
2017-04-03T00:32:55.809Z,8.73
2017-04-03T00:33:36.347Z,8.77
2017-04-03T00:34:16.876Z,8.7
2017-04-03T00:34:57.403Z,8.74
2017-04-03T00:35:37.916Z,8.74
2017-04-03T00:36:18.458Z,8.74
2017-04-03T00:36:58.997Z,8.71
2017-04-03T00:37:39.530Z,8.79
2017-04-03T00:38:20.072Z,8.73
2017-04-03T00:39:00.600Z,8.73
2017-04-03T00:39:41.131Z,8.66
2017-04-03T00:40:21.671Z,8.71
2017-04-03T00:41:02.196Z,8.7
2017-04-03T00:41:42.723Z,8.63
2017-04-03T00:42:23.260Z,8.73
2017-04-03T00:43:03.794Z,8.7
2017-04-03T00:43:44.326Z,8.79
2017-04-03T00:44:24.854Z,8.63
2017-04-03T00:45:05.391Z,8.74
2017-04-03T00:45:45.932Z,8.7
2017-04-03T00:46:26.477Z,8.71
2017-04-03T00:47:07.015Z,8.71
2017-04-03T00:47:47.549Z,8.74
2017-04-03T00:48:28.070Z,8.74
2017-04-03T00:49:08.595Z,8.76
2017-04-03T00:49:49.127Z,8.74
2017-04-03T00:50:29.660Z,8.74
2017-04-03T00:51:10.178Z,8.65
2017-04-03T00:51:50.699Z,8.7
2017-04-03T00:52:31.230Z,8.77
2017-04-03T00:53:11.762Z,8.66
2017-04-03T00:53:52.278Z,8.66
2017-04-03T00:54:32.802Z,8.61
2017-04-03T00:55:13.336Z,8.62
2017-04-03T00:55:53.878Z,8.68
2017-04-03T00:56:34.408Z,8.62
2017-04-03T00:57:14.936Z,8.65
2017-04-03T00:57:55.470Z,8.61
2017-04-03T00:58:36.002Z,8.63
2017-04-03T00:59:16.537Z,8.56
2017-04-03T00:59:57.086Z,8.47
2017-04-03T01:00:37.611Z,8.59
2017-04-03T01:01:18.145Z,8.52
2017-04-03T01:01:58.675Z,8.5
2017-04-03T01:02:39.205Z,8.43
2017-04-03T01:03:19.738Z,8.43
2017-04-03T01:04:00.266Z,8.4
2017-04-03T01:04:40.798Z,8.38
2017-04-03T01:05:21.316Z,8.37
2017-04-03T01:06:01.850Z,8.33
2017-04-03T01:06:42.366Z,8.4
2017-04-03T01:07:22.892Z,8.29
2017-04-03T01:08:03.428Z,8.4
2017-04-03T01:08:43.968Z,8.33
2017-04-03T01:09:24.483Z,8.28
2017-04-03T01:10:05.017Z,8.34
2017-04-03T01:10:45.530Z,8.28
2017-04-03T01:11:26.037Z,8.3
2017-04-03T01:12:06.570Z,8.37
2017-04-03T01:12:47.111Z,8.33
2017-04-03T01:13:27.636Z,8.25
2017-04-03T01:14:08.181Z,8.33
2017-04-03T01:14:48.718Z,8.4
2017-04-03T01:15:29.267Z,8.36
2017-04-03T01:16:09.807Z,8.38
2017-04-03T01:16:50.344Z,8.23
2017-04-03T01:17:30.874Z,8.33
2017-04-03T01:18:11.404Z,8.3
2017-04-03T01:18:51.941Z,8.28
2017-04-03T01:19:32.477Z,8.3
2017-04-03T01:20:13.012Z,8.33
2017-04-03T01:20:53.550Z,8.25
2017-04-03T01:21:34.085Z,8.29
2017-04-03T01:22:14.609Z,8.22
2017-04-03T01:22:55.139Z,8.23
2017-04-03T01:23:35.673Z,8.23
2017-04-03T01:24:16.202Z,8.16
2017-04-03T01:24:56.730Z,8.23
2017-04-03T01:25:37.263Z,8.26
2017-04-03T01:26:17.790Z,8.23
2017-04-03T01:26:58.323Z,8.2
2017-04-03T01:27:38.844Z,8.2
2017-04-03T01:28:19.377Z,8.22
2017-04-03T01:28:59.918Z,8.1
2017-04-03T01:29:40.443Z,8.1
2017-04-03T01:30:20.962Z,8.18
2017-04-03T01:31:01.530Z,8.22
2017-04-03T01:31:42.063Z,8.11
2017-04-03T01:32:22.598Z,8.07
2017-04-03T01:33:03.118Z,8.15
2017-04-03T01:33:43.646Z,8.15
2017-04-03T01:34:24.184Z,8.08
2017-04-03T01:35:04.724Z,8.1
2017-04-03T01:35:45.263Z,8.07
2017-04-03T01:36:25.793Z,8.15
2017-04-03T01:37:06.328Z,8.12
2017-04-03T01:37:46.867Z,8.05
2017-04-03T01:38:27.398Z,8
2017-04-03T01:39:07.934Z,8.1
2017-04-03T01:39:48.482Z,8.02
2017-04-03T01:40:29.018Z,8.08
2017-04-03T01:41:09.553Z,8.08
2017-04-03T01:41:50.094Z,8.08
2017-04-03T01:42:30.617Z,8.04
2017-04-03T01:43:11.188Z,8
2017-04-03T01:43:51.695Z,7.95
2017-04-03T01:44:32.228Z,7.97
2017-04-03T01:45:12.771Z,7.97
2017-04-03T01:45:53.301Z,8
2017-04-03T01:46:33.824Z,7.97
2017-04-03T01:47:14.357Z,8
2017-04-03T01:47:54.896Z,7.92
2017-04-03T01:48:35.433Z,7.93
2017-04-03T01:49:15.962Z,7.95
2017-04-03T01:49:56.493Z,7.9
2017-04-03T01:50:37.022Z,7.97
2017-04-03T01:51:17.554Z,7.92
2017-04-03T01:51:58.099Z,7.97
2017-04-03T01:52:38.608Z,7.92
2017-04-03T01:53:19.142Z,7.98
2017-04-03T01:53:59.673Z,7.93
2017-04-03T01:54:40.206Z,7.93
2017-04-03T01:55:20.741Z,8
2017-04-03T01:56:01.274Z,7.9
2017-04-03T01:56:41.806Z,7.86
2017-04-03T01:57:22.343Z,7.82
2017-04-03T01:58:02.871Z,7.83
2017-04-03T01:58:43.396Z,7.8
2017-04-03T01:59:23.914Z,7.77
2017-04-03T02:00:04.442Z,7.85
2017-04-03T02:00:44.973Z,7.85
2017-04-03T02:01:25.506Z,7.93
2017-04-03T02:02:06.038Z,7.93
2017-04-03T02:02:46.576Z,7.86
2017-04-03T02:03:27.098Z,7.9
2017-04-03T02:04:07.621Z,7.92
2017-04-03T02:04:48.153Z,7.89
2017-04-03T02:05:28.665Z,7.92
2017-04-03T02:06:09.188Z,7.8
2017-04-03T02:06:49.729Z,7.89
2017-04-03T02:07:30.246Z,7.85
2017-04-03T02:08:10.783Z,7.86
2017-04-03T02:08:51.318Z,7.82
2017-04-03T02:09:31.856Z,7.85
2017-04-03T02:10:12.394Z,7.86
2017-04-03T02:10:52.919Z,7.79
2017-04-03T02:11:33.450Z,7.87
2017-04-03T02:12:13.984Z,7.86
2017-04-03T02:12:54.525Z,7.87
2017-04-03T02:13:35.049Z,7.79
2017-04-03T02:14:15.569Z,7.9
2017-04-03T02:14:56.098Z,7.8
2017-04-03T02:15:36.624Z,7.8
2017-04-03T02:16:17.145Z,7.79
2017-04-03T02:16:57.694Z,7.79
2017-04-03T02:17:38.200Z,7.82
2017-04-03T02:18:18.740Z,7.86
2017-04-03T02:18:59.280Z,7.82
2017-04-03T02:19:39.820Z,7.86
2017-04-03T02:20:20.328Z,7.93
2017-04-03T02:21:00.843Z,7.8
2017-04-03T02:21:41.372Z,7.9
2017-04-03T02:22:21.909Z,7.83
2017-04-03T02:23:02.427Z,7.85
2017-04-03T02:23:42.952Z,7.92
2017-04-03T02:24:23.485Z,7.85
2017-04-03T02:25:04.008Z,7.92
2017-04-03T02:25:44.533Z,7.87
2017-04-03T02:26:25.062Z,7.95
2017-04-03T02:27:05.582Z,7.97
2017-04-03T02:27:46.112Z,7.92
2017-04-03T02:28:26.645Z,7.93
2017-04-03T02:29:07.154Z,7.97
2017-04-03T02:29:47.718Z,7.95
2017-04-03T02:30:28.212Z,7.95
2017-04-03T02:31:08.737Z,7.97
2017-04-03T02:31:49.261Z,7.95
2017-04-03T02:32:29.793Z,7.89
2017-04-03T02:33:10.329Z,7.93
2017-04-03T02:33:50.851Z,8.02
2017-04-03T02:34:31.384Z,8.02
2017-04-03T02:35:11.907Z,7.92
2017-04-03T02:35:52.443Z,7.95
2017-04-03T02:36:32.974Z,7.93
2017-04-03T02:37:16.028Z,7.92
2017-04-03T02:37:56.565Z,7.77
2017-04-03T02:38:37.073Z,7.82
2017-04-03T02:39:17.606Z,7.87
2017-04-03T02:39:58.133Z,7.82
2017-04-03T02:40:38.671Z,7.83
2017-04-03T02:41:19.203Z,7.8
2017-04-03T02:41:59.736Z,7.8
2017-04-03T02:42:40.267Z,7.72
2017-04-03T02:43:20.806Z,7.72
2017-04-03T02:44:01.336Z,7.72
2017-04-03T02:44:41.873Z,7.68
2017-04-03T02:45:22.405Z,7.68
2017-04-03T02:46:02.944Z,7.67
2017-04-03T02:46:43.486Z,7.71
2017-04-03T02:47:24.024Z,7.67
2017-04-03T02:48:04.553Z,7.68
2017-04-03T02:48:45.090Z,7.67
2017-04-03T02:49:25.628Z,7.68
2017-04-03T02:50:06.167Z,7.6
2017-04-03T02:50:46.705Z,7.63
2017-04-03T02:51:27.242Z,7.6
2017-04-03T02:52:07.768Z,7.57
2017-04-03T02:52:48.302Z,7.58
2017-04-03T02:53:28.839Z,7.45
2017-04-03T02:54:09.370Z,7.53
2017-04-03T02:54:49.915Z,7.52
2017-04-03T02:55:30.443Z,7.57
2017-04-03T02:56:10.970Z,7.5
2017-04-03T02:56:51.505Z,7.55
2017-04-03T02:57:32.036Z,7.5
2017-04-03T02:58:12.650Z,7.5
2017-04-03T02:58:53.220Z,7.52
2017-04-03T02:59:33.754Z,7.45
2017-04-03T03:00:14.375Z,7.45
2017-04-03T03:00:54.900Z,7.43
2017-04-03T03:01:35.421Z,7.42
2017-04-03T03:02:15.955Z,7.52
2017-04-03T03:02:56.488Z,7.53
2017-04-03T03:03:37.019Z,7.5
2017-04-03T03:04:17.559Z,7.52
2017-04-03T03:04:58.094Z,7.53
2017-04-03T03:05:38.631Z,7.55
2017-04-03T03:06:19.169Z,7.55
2017-04-03T03:06:59.694Z,7.53
2017-04-03T03:07:40.219Z,7.57
2017-04-03T03:08:20.755Z,7.55
2017-04-03T03:09:01.289Z,7.55
2017-04-03T03:09:41.823Z,7.46
2017-04-03T03:10:22.355Z,7.53
2017-04-03T03:11:02.873Z,7.52
2017-04-03T03:11:43.411Z,7.48
2017-04-03T03:12:23.945Z,7.48
2017-04-03T03:13:04.464Z,7.42
2017-04-03T03:13:45.005Z,7.4
2017-04-03T03:14:25.518Z,7.48
2017-04-03T03:15:06.055Z,7.32
2017-04-03T03:15:46.584Z,7.46
2017-04-03T03:16:27.125Z,7.43
2017-04-03T03:17:07.658Z,7.45
2017-04-03T03:17:48.176Z,7.4
2017-04-03T03:18:28.720Z,7.42
2017-04-03T03:19:09.250Z,7.45
2017-04-03T03:19:49.778Z,7.43
2017-04-03T03:20:30.314Z,7.42
2017-04-03T03:21:10.859Z,7.31
2017-04-03T03:21:51.404Z,7.42
2017-04-03T03:22:31.933Z,7.48
2017-04-03T03:23:12.455Z,7.45
2017-04-03T03:23:52.966Z,7.43
2017-04-03T03:24:33.501Z,7.48
2017-04-03T03:25:14.034Z,7.39
2017-04-03T03:25:54.556Z,7.35
2017-04-03T03:26:35.075Z,7.37
2017-04-03T03:27:15.637Z,7.48
2017-04-03T03:27:56.130Z,7.42
2017-04-03T03:28:36.665Z,7.49
2017-04-03T03:29:17.206Z,7.43
2017-04-03T03:29:57.736Z,7.43
2017-04-03T03:30:38.269Z,7.3
2017-04-03T03:31:18.783Z,7.45
2017-04-03T03:31:59.319Z,7.46
2017-04-03T03:32:39.857Z,7.42
2017-04-03T03:33:20.376Z,7.27
2017-04-03T03:34:00.972Z,7.45
2017-04-03T03:34:41.515Z,7.45
2017-04-03T03:35:22.051Z,7.4
2017-04-03T03:36:02.589Z,7.35
2017-04-03T03:36:43.130Z,7.45
2017-04-03T03:37:23.649Z,7.32
2017-04-03T03:38:04.165Z,7.43
2017-04-03T03:38:44.701Z,7.31
2017-04-03T03:39:25.235Z,7.27
2017-04-03T03:40:05.771Z,7.35
2017-04-03T03:40:46.290Z,7.31
2017-04-03T03:41:26.838Z,7.37
2017-04-03T03:42:07.364Z,7.35
2017-04-03T03:42:47.896Z,7.35
2017-04-03T03:43:28.431Z,7.3
2017-04-03T03:44:08.958Z,7.35
2017-04-03T03:44:49.491Z,7.25
2017-04-03T03:45:30.016Z,7.28
2017-04-03T03:46:10.569Z,7.32
2017-04-03T03:46:51.093Z,7.23
2017-04-03T03:47:31.607Z,7.32
2017-04-03T03:48:12.135Z,7.28
2017-04-03T03:48:52.666Z,7.25
2017-04-03T03:49:33.180Z,7.23
2017-04-03T03:50:13.708Z,7.21
2017-04-03T03:50:54.231Z,7.21
2017-04-03T03:51:34.762Z,7.15
2017-04-03T03:52:15.292Z,7.16
2017-04-03T03:52:55.818Z,7.23
2017-04-03T03:53:36.346Z,7.1
2017-04-03T03:54:16.981Z,7.16
2017-04-03T03:54:57.459Z,7.09
2017-04-03T03:55:37.974Z,7.24
2017-04-03T03:56:18.495Z,7.21
2017-04-03T03:56:59.035Z,7.16
2017-04-03T03:57:39.548Z,7.2
2017-04-03T03:58:20.082Z,7.17
2017-04-03T03:59:00.613Z,7.12
2017-04-03T03:59:41.148Z,7.12
2017-04-03T04:00:21.670Z,7.17
2017-04-03T04:01:02.183Z,7.24
2017-04-03T04:01:42.705Z,7.17
2017-04-03T04:02:23.222Z,7.13
2017-04-03T04:03:03.711Z,7.13
2017-04-03T04:03:44.230Z,7.09
2017-04-03T04:04:24.885Z,7.1
2017-04-03T04:05:05.406Z,7.06
2017-04-03T04:05:45.934Z,7.1
2017-04-03T04:06:26.472Z,7.09
2017-04-03T04:07:06.989Z,7.09
2017-04-03T04:07:47.524Z,6.99
2017-04-03T04:08:28.054Z,6.99
2017-04-03T04:09:08.593Z,6.99
2017-04-03T04:09:49.134Z,6.92
2017-04-03T04:10:29.674Z,6.97
2017-04-03T04:11:10.202Z,6.92
2017-04-03T04:11:50.727Z,6.95
2017-04-03T04:12:31.275Z,6.98
2017-04-03T04:13:11.768Z,6.97
2017-04-03T04:13:52.313Z,6.98
2017-04-03T04:14:32.820Z,6.98
2017-04-03T04:15:13.347Z,6.91
2017-04-03T04:15:53.884Z,6.97
2017-04-03T04:16:34.392Z,6.99
2017-04-03T04:17:14.919Z,6.99
2017-04-03T04:17:55.444Z,6.98
2017-04-03T04:18:35.986Z,6.98
2017-04-03T04:19:16.532Z,7.03
2017-04-03T04:19:57.065Z,7.05
2017-04-03T04:20:37.610Z,7.05
2017-04-03T04:21:18.097Z,7.05
2017-04-03T04:21:58.636Z,6.99
2017-04-03T04:22:39.141Z,6.95
2017-04-03T04:23:19.651Z,7.09
2017-04-03T04:24:00.192Z,6.99
2017-04-03T04:24:40.685Z,7.1
2017-04-03T04:25:21.204Z,7.03
2017-04-03T04:26:01.718Z,7.05
2017-04-03T04:26:42.245Z,7.03
2017-04-03T04:27:22.780Z,7.02
2017-04-03T04:28:03.318Z,7.1
2017-04-03T04:28:43.830Z,6.99
2017-04-03T04:29:24.366Z,7.03
2017-04-03T04:30:04.892Z,7.09
2017-04-03T04:30:45.429Z,6.99
2017-04-03T04:31:25.943Z,7.07
2017-04-03T04:32:06.484Z,6.99
2017-04-03T04:32:47.028Z,6.99
2017-04-03T04:33:27.573Z,6.99
2017-04-03T04:34:08.108Z,6.98
2017-04-03T04:34:48.638Z,6.99
2017-04-03T04:35:29.170Z,6.89
2017-04-03T04:36:09.707Z,7.02
2017-04-03T04:36:50.245Z,6.97
2017-04-03T04:37:30.773Z,6.94
2017-04-03T04:38:11.282Z,6.92
2017-04-03T04:38:51.805Z,6.97
2017-04-03T04:39:32.347Z,6.98
2017-04-03T04:40:12.878Z,6.97
2017-04-03T04:40:53.411Z,6.98
2017-04-03T04:41:33.967Z,6.98
2017-04-03T04:42:14.457Z,6.98
2017-04-03T04:42:54.978Z,6.91
2017-04-03T04:43:35.499Z,6.97
2017-04-03T04:44:16.023Z,6.94
2017-04-03T04:44:56.550Z,6.88
2017-04-03T04:45:37.081Z,6.98
2017-04-03T04:46:17.607Z,6.97
2017-04-03T04:46:58.146Z,6.94
2017-04-03T04:47:38.654Z,6.97
2017-04-03T04:48:19.187Z,6.94
2017-04-03T04:48:59.714Z,6.91
2017-04-03T04:49:40.252Z,6.97
2017-04-03T04:50:20.793Z,6.98
2017-04-03T04:51:01.281Z,6.97
2017-04-03T04:51:41.814Z,6.94
2017-04-03T04:52:22.334Z,6.94
2017-04-03T04:53:02.882Z,6.91
2017-04-03T04:53:43.405Z,6.95
2017-04-03T04:54:23.938Z,6.98
2017-04-03T04:55:04.461Z,6.92
2017-04-03T04:55:44.979Z,6.95
2017-04-03T04:56:25.505Z,6.98
2017-04-03T04:57:06.025Z,6.95
2017-04-03T04:57:46.545Z,6.99
2017-04-03T04:58:27.074Z,6.95
2017-04-03T04:59:07.605Z,6.98
2017-04-03T04:59:48.142Z,6.98
2017-04-03T05:00:28.664Z,6.95
2017-04-03T05:01:09.189Z,6.95
2017-04-03T05:01:49.721Z,7.03
2017-04-03T05:02:30.257Z,7.03
2017-04-03T05:03:10.784Z,6.92
2017-04-03T05:03:51.300Z,6.92
2017-04-03T05:04:31.809Z,6.91
2017-04-03T05:05:12.337Z,7.03
2017-04-03T05:05:52.859Z,6.91
2017-04-03T05:06:33.371Z,6.95
2017-04-03T05:07:13.899Z,6.95
2017-04-03T05:07:54.435Z,6.94
2017-04-03T05:08:34.942Z,6.97
2017-04-03T05:09:15.481Z,6.92
2017-04-03T05:09:56.009Z,6.98
2017-04-03T05:10:36.536Z,6.95
2017-04-03T05:11:17.071Z,6.99
2017-04-03T05:11:57.581Z,7.03
2017-04-03T05:12:38.105Z,6.98
2017-04-03T05:13:18.620Z,7.03
2017-04-03T05:13:59.140Z,7.1
2017-04-03T05:14:39.693Z,7.06
2017-04-03T05:15:20.237Z,6.98
2017-04-03T05:16:00.776Z,6.98
2017-04-03T05:16:41.312Z,7.06
2017-04-03T05:17:21.845Z,7.02
2017-04-03T05:18:02.370Z,6.98
2017-04-03T05:18:42.897Z,6.97
2017-04-03T05:19:23.429Z,6.95
2017-04-03T05:20:03.965Z,7.02
2017-04-03T05:20:44.489Z,7.05
2017-04-03T05:21:25.008Z,6.99
2017-04-03T05:22:05.543Z,7.06
2017-04-03T05:22:46.064Z,6.98
2017-04-03T05:23:26.563Z,7.06
2017-04-03T05:24:07.073Z,7.06
2017-04-03T05:24:47.583Z,7.07
2017-04-03T05:25:28.106Z,7.03
2017-04-03T05:26:08.615Z,6.95
2017-04-03T05:26:49.123Z,6.97
2017-04-03T05:27:29.674Z,6.98
2017-04-03T05:28:10.241Z,6.97
2017-04-03T05:28:50.775Z,7.02
2017-04-03T05:29:31.300Z,6.97
2017-04-03T05:30:11.821Z,7.03
2017-04-03T05:30:52.358Z,6.95
2017-04-03T05:31:32.884Z,6.94
2017-04-03T05:32:13.414Z,6.94
2017-04-03T05:32:53.946Z,6.94
2017-04-03T05:33:34.480Z,6.92
2017-04-03T05:34:15.029Z,6.94
2017-04-03T05:34:55.576Z,6.94
2017-04-03T05:35:36.111Z,6.94
2017-04-03T05:36:16.650Z,6.94
2017-04-03T05:36:57.185Z,6.94
2017-04-03T05:37:37.714Z,6.92
2017-04-03T05:38:18.245Z,6.94
2017-04-03T05:38:58.783Z,6.95
2017-04-03T05:39:39.322Z,6.94
2017-04-03T05:40:19.853Z,6.98
2017-04-03T05:41:00.389Z,6.99
2017-04-03T05:41:40.920Z,6.99
2017-04-03T05:42:21.449Z,6.95
2017-04-03T05:43:01.966Z,6.99
2017-04-03T05:43:42.505Z,6.95
2017-04-03T05:44:23.041Z,6.95
2017-04-03T05:45:03.555Z,7.06
2017-04-03T05:45:44.090Z,7.07
2017-04-03T05:46:24.679Z,7.09
2017-04-03T05:47:05.485Z,7.02
2017-04-03T05:47:46.103Z,7.12
2017-04-03T05:48:26.632Z,7.03
2017-04-03T05:49:07.164Z,7.02
2017-04-03T05:49:47.680Z,7.1
2017-04-03T05:50:28.200Z,7.06
2017-04-03T05:51:08.716Z,7.13
2017-04-03T05:51:49.248Z,7.09
2017-04-03T05:52:29.790Z,7.1
2017-04-03T05:53:10.329Z,7.09
2017-04-03T05:53:50.846Z,7.16
2017-04-03T05:54:31.371Z,7.15
2017-04-03T05:55:11.901Z,7.23
2017-04-03T05:55:52.426Z,7.13
2017-04-03T05:56:32.956Z,7.2
2017-04-03T05:57:13.492Z,7.13
2017-04-03T05:57:54.019Z,7.25
2017-04-03T05:58:34.625Z,7.25
2017-04-03T05:59:15.126Z,7.21
2017-04-03T05:59:55.655Z,7.21
2017-04-03T06:00:36.181Z,7.17
2017-04-03T06:01:16.722Z,7.2
2017-04-03T06:01:57.249Z,7.28
2017-04-03T06:02:37.794Z,7.21
2017-04-03T06:03:18.323Z,7.16
2017-04-03T06:03:58.828Z,7.16
2017-04-03T06:04:39.395Z,7.23
2017-04-03T06:05:19.921Z,7.28
2017-04-03T06:06:00.469Z,7.15
2017-04-03T06:06:40.992Z,7.2
2017-04-03T06:07:21.534Z,7.31
2017-04-03T06:08:02.066Z,7.25
2017-04-03T06:08:42.597Z,7.23
2017-04-03T06:09:23.130Z,7.31
2017-04-03T06:10:03.634Z,7.3
2017-04-03T06:10:44.158Z,7.3
2017-04-03T06:11:24.666Z,7.3
2017-04-03T06:12:05.183Z,7.35
2017-04-03T06:12:45.694Z,7.28
2017-04-03T06:13:26.226Z,7.45
2017-04-03T06:14:06.736Z,7.39
2017-04-03T06:14:47.277Z,7.4
2017-04-03T06:15:27.807Z,7.46
2017-04-03T06:16:08.318Z,7.32
2017-04-03T06:16:48.833Z,7.4
2017-04-03T06:17:29.377Z,7.5
2017-04-03T06:18:09.914Z,7.39
2017-04-03T06:18:50.444Z,7.52
2017-04-03T06:19:30.970Z,7.5
2017-04-03T06:20:11.497Z,7.53
2017-04-03T06:20:52.026Z,7.52
2017-04-03T06:21:32.561Z,7.57
2017-04-03T06:22:13.098Z,7.52
2017-04-03T06:22:53.637Z,7.61
2017-04-03T06:23:34.162Z,7.61
2017-04-03T06:24:14.705Z,7.68
2017-04-03T06:24:55.226Z,7.69
2017-04-03T06:25:35.772Z,7.72
2017-04-03T06:26:16.314Z,7.74
2017-04-03T06:26:56.840Z,7.75
2017-04-03T06:27:37.356Z,7.75
2017-04-03T06:28:17.885Z,7.8
2017-04-03T06:28:58.396Z,7.8
2017-04-03T06:29:38.926Z,7.83
2017-04-03T06:30:19.483Z,7.92
2017-04-03T06:31:00.003Z,7.9
2017-04-03T06:31:40.554Z,7.97
2017-04-03T06:32:21.072Z,7.95
2017-04-03T06:33:01.637Z,7.95
2017-04-03T06:33:42.166Z,7.95
2017-04-03T06:34:22.687Z,8.01
2017-04-03T06:35:03.194Z,8
2017-04-03T06:35:43.711Z,8.07
2017-04-03T06:36:24.248Z,8.01
2017-04-03T06:37:04.753Z,8
2017-04-03T06:37:45.290Z,8.02
2017-04-03T06:38:25.888Z,8.07
2017-04-03T06:39:06.373Z,8.12
2017-04-03T06:39:46.909Z,8.22
2017-04-03T06:40:27.467Z,8.12
2017-04-03T06:41:08.015Z,8.15
2017-04-03T06:41:48.515Z,8.22
2017-04-03T06:42:29.027Z,8.3
2017-04-03T06:43:09.557Z,8.26
2017-04-03T06:43:50.101Z,8.41
2017-04-03T06:44:30.685Z,8.41
2017-04-03T06:45:11.228Z,8.43
2017-04-03T06:45:51.762Z,8.41
2017-04-03T06:46:32.310Z,8.47
2017-04-03T06:47:12.830Z,8.53
2017-04-03T06:47:53.356Z,8.52
2017-04-03T06:48:33.898Z,8.58
2017-04-03T06:49:14.437Z,8.56
2017-04-03T06:49:54.977Z,8.63
2017-04-03T06:50:35.514Z,8.63
2017-04-03T06:51:16.057Z,8.73
2017-04-03T06:51:56.579Z,8.62
2017-04-03T06:52:37.105Z,8.76
2017-04-03T06:53:17.653Z,8.71
2017-04-03T06:53:58.183Z,8.74
2017-04-03T06:54:38.722Z,8.74
2017-04-03T06:55:19.242Z,8.74
2017-04-03T06:55:59.760Z,8.92
2017-04-03T06:56:40.306Z,8.91
2017-04-03T06:57:20.841Z,8.91
2017-04-03T06:58:01.416Z,8.89
2017-04-03T06:58:41.923Z,9.08
2017-04-03T06:59:22.439Z,9.02
2017-04-03T07:00:02.965Z,9.02
2017-04-03T07:00:43.495Z,9.15
2017-04-03T07:01:24.018Z,9.15
2017-04-03T07:02:04.540Z,9.15
2017-04-03T07:02:45.059Z,9.23
2017-04-03T07:03:25.567Z,9.23
2017-04-03T07:04:06.119Z,9.24
2017-04-03T07:04:46.665Z,9.29
2017-04-03T07:05:27.187Z,9.29
2017-04-03T07:06:07.713Z,9.29
2017-04-03T07:06:48.245Z,9.43
2017-04-03T07:07:28.775Z,9.4
2017-04-03T07:08:09.306Z,9.42
2017-04-03T07:08:49.820Z,9.46
2017-04-03T07:09:30.362Z,9.47
2017-04-03T07:10:10.892Z,9.53
2017-04-03T07:10:51.425Z,9.53
2017-04-03T07:11:31.954Z,9.53
2017-04-03T07:12:12.483Z,9.6
2017-04-03T07:12:53.017Z,9.66
2017-04-03T07:13:33.531Z,9.75
2017-04-03T07:14:14.071Z,9.6
2017-04-03T07:14:54.609Z,9.72
2017-04-03T07:15:35.137Z,9.74
2017-04-03T07:16:15.667Z,9.76
2017-04-03T07:16:56.200Z,9.69
2017-04-03T07:17:36.733Z,9.71
2017-04-03T07:18:17.263Z,9.75
2017-04-03T07:18:57.782Z,9.68
2017-04-03T07:19:38.321Z,9.83
2017-04-03T07:20:18.854Z,9.84
2017-04-03T07:20:59.390Z,9.75
2017-04-03T07:21:39.888Z,9.9
2017-04-03T07:22:20.420Z,9.86
2017-04-03T07:23:00.953Z,9.97
2017-04-03T07:23:41.485Z,9.97
2017-04-03T07:24:22.025Z,10.07
2017-04-03T07:25:02.550Z,10.07
2017-04-03T07:25:43.083Z,10.07
2017-04-03T07:26:23.623Z,10.07
2017-04-03T07:27:04.150Z,10.18
2017-04-03T07:27:44.696Z,10.22
2017-04-03T07:28:25.220Z,10.2
2017-04-03T07:29:05.741Z,10.26
2017-04-03T07:29:46.273Z,10.2
2017-04-03T07:30:26.806Z,10.22
2017-04-03T07:31:07.338Z,10.2
2017-04-03T07:31:47.879Z,10.26
2017-04-03T07:32:28.416Z,10.27
2017-04-03T07:33:08.949Z,10.22
2017-04-03T07:33:49.484Z,10.25
2017-04-03T07:34:30.019Z,10.2
2017-04-03T07:35:10.558Z,10.26
2017-04-03T07:35:51.091Z,10.22
2017-04-03T07:36:31.628Z,10.2
2017-04-03T07:37:12.147Z,10.17
2017-04-03T07:37:52.679Z,10.18
2017-04-03T07:38:33.214Z,10.15
2017-04-03T07:39:13.751Z,10.15
2017-04-03T07:39:54.288Z,10.15
2017-04-03T07:40:34.826Z,10.09
2017-04-03T07:41:15.351Z,10.11
2017-04-03T07:41:55.882Z,10.15
2017-04-03T07:42:36.415Z,10.14
2017-04-03T07:43:16.951Z,10.12
2017-04-03T07:43:57.479Z,10.12
2017-04-03T07:44:38.002Z,10.17
2017-04-03T07:45:18.544Z,10.18
2017-04-03T07:45:59.064Z,10.17
2017-04-03T07:46:39.613Z,10.17
2017-04-03T07:47:20.150Z,10.23
2017-04-03T07:48:00.680Z,10.26
2017-04-03T07:48:41.208Z,10.25
2017-04-03T07:49:21.759Z,10.22
2017-04-03T07:50:02.295Z,10.23
2017-04-03T07:50:42.838Z,10.17
2017-04-03T07:51:23.377Z,10.14
2017-04-03T07:52:03.906Z,10.11
2017-04-03T07:52:44.445Z,10.01
2017-04-03T07:53:24.979Z,9.91
2017-04-03T07:54:05.505Z,9.87
2017-04-03T07:54:46.033Z,9.83
2017-04-03T07:55:26.568Z,9.76
2017-04-03T07:56:07.100Z,9.64
2017-04-03T07:56:47.615Z,9.58
2017-04-03T07:57:28.150Z,9.54
2017-04-03T07:58:08.683Z,9.58
2017-04-03T07:58:49.223Z,9.65
2017-04-03T07:59:29.761Z,9.69
2017-04-03T08:00:10.299Z,9.65
2017-04-03T08:00:50.835Z,9.75
2017-04-03T08:01:31.367Z,9.81
2017-04-03T08:02:11.898Z,9.69
2017-04-03T08:02:52.439Z,9.83
2017-04-03T08:03:32.976Z,9.78
2017-04-03T08:04:13.509Z,9.71
2017-04-03T08:04:54.045Z,9.84
2017-04-03T08:05:34.568Z,9.83
2017-04-03T08:06:15.104Z,9.81
2017-04-03T08:06:55.619Z,9.86
2017-04-03T08:07:36.143Z,9.72
2017-04-03T08:08:16.674Z,9.75
2017-04-03T08:08:57.201Z,9.75
2017-04-03T08:09:37.729Z,9.81
2017-04-03T08:10:18.254Z,9.83
2017-04-03T08:10:58.786Z,9.84
2017-04-03T08:11:39.318Z,9.93
2017-04-03T08:12:19.855Z,9.99
2017-04-03T08:13:00.381Z,10.01
2017-04-03T08:13:40.914Z,10.02
2017-04-03T08:14:21.439Z,10.07
2017-04-03T08:15:01.974Z,10.14
2017-04-03T08:15:42.505Z,10.15
2017-04-03T08:16:23.055Z,10.08
2017-04-03T08:17:03.581Z,10.04
2017-04-03T08:17:44.121Z,10.01
2017-04-03T08:18:24.647Z,10.05
2017-04-03T08:19:05.193Z,9.94
2017-04-03T08:19:45.726Z,9.96
2017-04-03T08:20:26.257Z,9.91
2017-04-03T08:21:06.795Z,9.9
2017-04-03T08:21:47.336Z,9.89
2017-04-03T08:22:27.868Z,9.94
2017-04-03T08:23:08.410Z,9.89
2017-04-03T08:23:48.933Z,9.97
2017-04-03T08:24:29.463Z,9.89
2017-04-03T08:25:10.004Z,9.87
2017-04-03T08:25:50.543Z,9.94
2017-04-03T08:26:31.074Z,9.99
2017-04-03T08:27:11.603Z,10.01
2017-04-03T08:27:52.116Z,10.02
2017-04-03T08:28:32.665Z,10.07
2017-04-03T08:29:13.161Z,9.97
2017-04-03T08:29:53.687Z,9.9
2017-04-03T08:30:34.212Z,10.01
2017-04-03T08:31:14.726Z,9.93
2017-04-03T08:31:55.238Z,9.9
2017-04-03T08:32:35.766Z,9.84
2017-04-03T08:33:16.302Z,9.87
2017-04-03T08:33:56.846Z,9.75
2017-04-03T08:34:37.388Z,9.71
2017-04-03T08:35:17.907Z,9.57
2017-04-03T08:35:58.420Z,9.53
2017-04-03T08:36:38.928Z,9.64
2017-04-03T08:37:19.475Z,9.51
2017-04-03T08:38:00.013Z,9.53
2017-04-03T08:38:40.541Z,9.58
2017-04-03T08:39:21.073Z,9.65
2017-04-03T08:40:01.581Z,9.6
2017-04-03T08:40:42.110Z,9.65
2017-04-03T08:41:22.638Z,9.65
2017-04-03T08:42:03.181Z,9.53
2017-04-03T08:42:43.701Z,9.53
2017-04-03T08:43:24.205Z,9.5
2017-04-03T08:44:04.720Z,9.42
2017-04-03T08:44:45.257Z,9.36
2017-04-03T08:45:25.783Z,9.5
2017-04-03T08:46:06.299Z,9.47
2017-04-03T08:46:46.823Z,9.48
2017-04-03T08:47:27.394Z,9.4
2017-04-03T08:48:07.909Z,9.48
2017-04-03T08:48:48.430Z,9.46
2017-04-03T08:49:28.942Z,9.47
2017-04-03T08:50:09.476Z,9.46
2017-04-03T08:50:50.008Z,9.43
2017-04-03T08:51:30.540Z,9.46
2017-04-03T08:52:11.080Z,9.4
2017-04-03T08:52:51.622Z,9.43
2017-04-03T08:53:32.152Z,9.42
2017-04-03T08:54:12.680Z,9.46
2017-04-03T08:54:53.202Z,9.58
2017-04-03T08:55:33.727Z,9.56
2017-04-03T08:56:14.247Z,9.58
2017-04-03T08:56:54.779Z,9.72
2017-04-03T08:57:35.303Z,9.65
2017-04-03T08:58:15.835Z,9.69
2017-04-03T08:58:56.358Z,9.75
2017-04-03T08:59:36.885Z,9.86
2017-04-03T09:00:17.430Z,9.84
2017-04-03T09:00:57.956Z,9.81